Time;durP1;ratioP1;P1;durP2;ratioP2;P2;SDS_P1;SDS_P2;PMS_P1;PMS_P2;Temp;Humidity;BMP_temperature;BMP_pressure;BME280_temperature;BME280_humidity;BME280_pressure;Samples;Min_cycle;Max_cycle;Signal;HPM_P1;HPM_P2
2023/06/08 00:00:28;;;;;;;;;;;;;;;17.65;37.79;101007.84;105564;1297;67385;-86
2023/06/08 00:03:17;;;;;;;;;;;;;;;17.59;37.90;101005.08;105443;1297;71409;-86
2023/06/08 00:06:04;;;;;;;;;;;;;;;17.50;37.84;101002.11;105553;1297;59497;-86
2023/06/08 00:08:50;;;;;;;;;;;;;;;17.38;37.96;101001.51;105564;1297;59267;-86
2023/06/08 00:11:37;;;;;;;;;;;;;;;17.30;38.23;101000.09;105562;1297;74532;-86
2023/06/08 00:14:22;;;;;;;;;;;;;;;17.29;38.28;100999.06;105594;1297;67392;-85
2023/06/08 00:17:10;;;;;;;;;;;;;;;17.21;38.21;100995.52;105536;1297;71232;-86
2023/06/08 00:19:56;;;;;;;;;;;;;;;17.11;38.38;101001.36;105551;1296;58892;-86
2023/06/08 00:22:42;;;;;;;;;;;;;;;17.05;38.46;101001.56;105524;1300;60114;-86
2023/06/08 00:25:28;;;;;;;;;;;;;;;16.99;38.51;101001.07;105586;1297;73529;-85
2023/06/08 00:28:15;;;;;;;;;;;;;;;16.88;38.62;101004.80;105634;1297;67972;-86
2023/06/08 00:31:01;;;;;;;;;;;;;;;16.76;38.69;101008.86;105582;1297;72567;-86
2023/06/08 00:33:46;;;;;;;;;;;;;;;16.68;38.90;101005.84;105398;1297;58488;-86
2023/06/08 00:36:32;;;;;;;;;;;;;;;16.69;38.93;101009.11;105637;1296;59134;-86
2023/06/08 00:39:18;;;;;;;;;;;;;;;16.59;39.09;101009.66;105540;1297;74019;-86
2023/06/08 00:42:05;;;;;;;;;;;;;;;16.58;39.08;101002.89;105552;1297;68011;-86
2023/06/08 00:44:51;;;;;;;;;;;;;;;16.57;39.12;101004.84;105479;1297;71229;-86
2023/06/08 00:47:37;;;;;;;;;;;;;;;16.53;39.23;101004.27;105542;1297;59031;-85
2023/06/08 00:50:24;;;;;;;;;;;;;;;16.43;39.36;101007.40;105605;1296;60326;-85
2023/06/08 00:53:10;;;;;;;;;;;;;;;16.29;39.33;101007.52;105441;1296;73423;-85
2023/06/08 00:55:57;;;;;;;;;;;;;;;16.17;39.23;101009.65;105607;1297;68435;-86
2023/06/08 00:58:46;;;;;;;;;;;;;;;16.08;39.52;101009.09;105595;1297;72544;-85
2023/06/08 01:01:35;;;;;;;;;;;;;;;16.05;39.69;101004.84;105546;1297;58988;-86
2023/06/08 01:04:23;;;;;;;;;;;;;;;16.09;39.69;101001.94;105573;1296;59180;-86
2023/06/08 01:07:40;;;;;;;;;;;;;;;16.10;39.78;101003.33;105561;1297;73079;-86
2023/06/08 01:10:33;;;;;;;;;;;;;;;16.03;39.88;101001.61;105481;1297;67374;-86
2023/06/08 01:13:38;;;;;;;;;;;;;;;15.92;39.93;101003.02;105567;1297;72436;-86
2023/06/08 01:16:28;;;;;;;;;;;;;;;15.87;40.10;101002.81;105564;1297;58420;-86
2023/06/08 01:19:17;;;;;;;;;;;;;;;15.84;40.12;100999.25;105550;1297;59698;-86
2023/06/08 01:22:14;;;;;;;;;;;;;;;15.80;40.30;100996.09;105593;1297;73877;-86
2023/06/08 01:25:03;;;;;;;;;;;;;;;15.83;40.31;100994.95;105623;1297;68325;-86
2023/06/08 01:27:49;;;;;;;;;;;;;;;15.87;40.33;100991.69;105551;1297;71997;-86
2023/06/08 01:30:35;;;;;;;;;;;;;;;15.84;40.31;100991.96;105622;1297;59008;-86
2023/06/08 01:33:23;;;;;;;;;;;;;;;15.75;40.32;100990.33;105527;1297;59648;-86
2023/06/08 01:36:25;;;;;;;;;;;;;;;15.68;40.57;100989.87;105549;1297;73235;-86
2023/06/08 01:39:11;;;;;;;;;;;;;;;15.58;40.65;100989.14;105574;1296;67639;-86
2023/06/08 01:42:00;;;;;;;;;;;;;;;15.57;40.75;100989.02;105443;1297;72409;-86
2023/06/08 01:44:58;;;;;;;;;;;;;;;15.60;40.85;100986.85;105514;1297;59149;-86
2023/06/08 01:47:54;;;;;;;;;;;;;;;15.58;40.97;100986.21;105601;1297;59220;-86
2023/06/08 01:50:41;;;;;;;;;;;;;;;15.48;40.96;100986.98;105511;1297;75147;-86
2023/06/08 01:53:27;;;;;;;;;;;;;;;15.41;41.12;100988.25;105482;1297;67393;-86
2023/06/08 01:56:13;;;;;;;;;;;;;;;15.36;41.09;100991.35;105506;1296;71425;-86
2023/06/08 01:58:59;;;;;;;;;;;;;;;15.31;41.12;100992.04;105496;1297;59124;-86
2023/06/08 02:01:45;;;;;;;;;;;;;;;15.30;41.30;100991.89;105628;1295;59383;-86
2023/06/08 02:04:31;;;;;;;;;;;;;;;15.33;41.24;100991.09;105556;1297;73774;-86
2023/06/08 02:07:17;;;;;;;;;;;;;;;15.30;41.33;100993.09;105587;1297;67197;-86
2023/06/08 02:10:04;;;;;;;;;;;;;;;15.24;41.38;100989.63;101740;1296;5068764;-86
2023/06/08 02:12:50;;;;;;;;;;;;;;;15.12;41.33;100988.75;105528;1297;59309;-86
2023/06/08 02:15:36;;;;;;;;;;;;;;;15.00;41.51;100989.84;105458;1297;60528;-86
2023/06/08 02:18:22;;;;;;;;;;;;;;;14.91;41.57;100994.58;105591;1297;74668;-86
2023/06/08 02:21:08;;;;;;;;;;;;;;;14.86;41.61;100995.24;105469;1297;68561;-86
2023/06/08 02:23:54;;;;;;;;;;;;;;;14.83;41.72;101000.86;105571;1296;72555;-86
2023/06/08 02:26:42;;;;;;;;;;;;;;;14.78;41.86;100996.31;105520;1298;59721;-86
2023/06/08 02:29:28;;;;;;;;;;;;;;;14.74;41.87;100997.15;105361;1297;59727;-85
2023/06/08 02:32:14;;;;;;;;;;;;;;;14.69;41.93;100998.14;105529;1296;75064;-86
2023/06/08 02:35:03;;;;;;;;;;;;;;;14.70;42.03;100995.33;105626;1297;68944;-85
2023/06/08 02:37:50;;;;;;;;;;;;;;;14.68;42.13;100998.16;105543;1297;71833;-85
2023/06/08 02:40:35;;;;;;;;;;;;;;;14.62;42.21;100994.67;105556;1296;59240;-85
2023/06/08 02:43:21;;;;;;;;;;;;;;;14.65;42.34;100995.83;105547;1296;59313;-86
2023/06/08 02:46:07;;;;;;;;;;;;;;;14.67;42.37;100994.73;105468;1297;74268;-86
2023/06/08 02:48:53;;;;;;;;;;;;;;;14.68;42.44;100992.79;105522;1296;67447;-86
2023/06/08 02:51:39;;;;;;;;;;;;;;;14.73;42.53;100995.42;105634;1297;72538;-86
2023/06/08 02:54:25;;;;;;;;;;;;;;;14.75;42.65;100998.48;105553;1296;59345;-87
2023/06/08 02:57:11;;;;;;;;;;;;;;;14.77;42.63;100993.58;105469;1297;59542;-87
2023/06/08 02:59:57;;;;;;;;;;;;;;;14.77;42.57;100997.41;105523;1297;73458;-87
2023/06/08 03:02:43;;;;;;;;;;;;;;;14.73;42.62;100994.40;105541;1297;67651;-87
2023/06/08 03:05:29;;;;;;;;;;;;;;;14.71;42.70;100998.09;105527;1297;72864;-86
2023/06/08 03:08:15;;;;;;;;;;;;;;;14.67;42.75;101001.31;105563;1297;59014;-86
2023/06/08 03:11:01;;;;;;;;;;;;;;;14.63;42.83;101002.63;105555;1296;59126;-87
2023/06/08 03:13:48;;;;;;;;;;;;;;;14.65;43.04;101006.90;105467;1297;72888;-86
2023/06/08 03:16:35;;;;;;;;;;;;;;;14.71;43.13;101001.73;105519;1297;68737;-86
2023/06/08 03:19:21;;;;;;;;;;;;;;;14.71;43.05;100999.83;105478;1297;71410;-86
2023/06/08 03:22:07;;;;;;;;;;;;;;;14.68;43.13;101001.62;105544;1296;59474;-86
2023/06/08 03:24:54;;;;;;;;;;;;;;;14.65;43.17;101003.44;105492;1297;59002;-86
2023/06/08 03:27:39;;;;;;;;;;;;;;;14.57;43.20;101006.27;105416;1299;74574;-86
2023/06/08 03:30:25;;;;;;;;;;;;;;;14.52;43.37;101004.14;105602;1296;68432;-86
2023/06/08 03:33:11;;;;;;;;;;;;;;;14.54;43.55;101003.21;105487;1297;72254;-86
2023/06/08 03:35:57;;;;;;;;;;;;;;;14.60;43.58;101003.06;105480;1296;59324;-86
2023/06/08 03:38:43;;;;;;;;;;;;;;;14.65;43.67;101003.64;105529;1296;59294;-86
2023/06/08 03:41:29;;;;;;;;;;;;;;;14.69;43.74;101004.73;105484;1297;74643;-86
2023/06/08 03:44:15;;;;;;;;;;;;;;;14.76;43.85;101005.76;105572;1297;67314;-86
2023/06/08 03:47:01;;;;;;;;;;;;;;;14.85;43.91;101009.17;105511;1297;71207;-86
2023/06/08 03:49:47;;;;;;;;;;;;;;;14.88;43.88;101009.95;105494;1296;58964;-86
2023/06/08 03:52:33;;;;;;;;;;;;;;;14.90;43.91;101009.02;105460;1297;59376;-86
2023/06/08 03:55:21;;;;;;;;;;;;;;;14.94;44.09;101003.87;105433;1297;74467;-86
2023/06/08 03:58:07;;;;;;;;;;;;;;;15.01;44.19;101007.68;105605;1297;69042;-86
2023/06/08 04:00:53;;;;;;;;;;;;;;;15.07;44.28;101007.33;105579;1296;72184;-86
2023/06/08 04:03:39;;;;;;;;;;;;;;;15.17;44.36;101005.62;105535;1297;59052;-86
2023/06/08 04:06:33;;;;;;;;;;;;;;;15.33;44.41;101004.14;105521;1297;59057;-87
2023/06/08 04:09:19;;;;;;;;;;;;;;;15.51;44.56;101004.63;105492;1297;73327;-87
2023/06/08 04:12:05;;;;;;;;;;;;;;;15.72;44.62;101008.52;105376;1299;68458;-87
2023/06/08 04:14:51;;;;;;;;;;;;;;;15.87;44.54;101004.55;105522;1296;72475;-87
2023/06/08 04:17:41;;;;;;;;;;;;;;;15.99;44.51;101003.50;105504;1296;59302;-87
2023/06/08 04:20:28;;;;;;;;;;;;;;;16.08;44.72;101005.27;105479;1297;59919;-87
2023/06/08 04:23:15;;;;;;;;;;;;;;;16.15;44.65;101007.97;105527;1300;73221;-87
2023/06/08 04:26:01;;;;;;;;;;;;;;;16.21;44.91;101009.17;105546;1297;67559;-87
2023/06/08 04:28:48;;;;;;;;;;;;;;;16.31;44.94;101003.83;105390;1297;71662;-87
2023/06/08 04:31:35;;;;;;;;;;;;;;;16.44;45.05;101003.88;105583;1295;59295;-86
2023/06/08 04:34:21;;;;;;;;;;;;;;;16.57;45.03;101005.34;105501;1297;60107;-86
2023/06/08 04:37:06;;;;;;;;;;;;;;;16.69;45.06;101002.16;105482;1297;75364;-87
2023/06/08 04:39:52;;;;;;;;;;;;;;;16.83;45.23;101008.62;105428;1297;67496;-87
2023/06/08 04:42:39;;;;;;;;;;;;;;;16.93;45.18;101008.45;105374;1296;71486;-87
2023/06/08 04:45:25;;;;;;;;;;;;;;;17.05;45.34;101005.91;105389;1300;59001;-87
2023/06/08 04:48:11;;;;;;;;;;;;;;;17.16;45.30;101007.22;105447;1299;58995;-87
2023/06/08 04:51:03;;;;;;;;;;;;;;;17.33;45.31;101009.39;105626;1297;73444;-87
2023/06/08 04:53:51;;;;;;;;;;;;;;;17.49;45.40;101016.10;105600;1297;68571;-88
2023/06/08 04:56:38;;;;;;;;;;;;;;;17.61;45.33;101009.38;105424;1297;73020;-87
2023/06/08 04:59:25;;;;;;;;;;;;;;;17.72;45.27;101008.55;105495;1297;59941;-87
2023/06/08 05:02:11;;;;;;;;;;;;;;;17.89;45.24;101011.06;105337;1297;60045;-87
2023/06/08 05:04:58;;;;;;;;;;;;;;;18.04;45.08;101005.04;105575;1297;73055;-87
2023/06/08 05:07:44;;;;;;;;;;;;;;;18.35;45.14;101008.07;105596;1297;67417;-87
2023/06/08 05:10:30;;;;;;;;;;;;;;;18.88;45.12;101005.82;105497;1297;71144;-88
2023/06/08 05:13:16;;;;;;;;;;;;;;;19.47;44.97;101005.17;105446;1297;59268;-89
2023/06/08 05:16:02;;;;;;;;;;;;;;;20.16;44.68;101008.48;105481;1297;58987;-89
2023/06/08 05:18:48;;;;;;;;;;;;;;;20.84;44.50;101010.30;105489;1297;73379;-89
2023/06/08 05:21:37;;;;;;;;;;;;;;;21.26;44.15;101011.76;105516;1297;67559;-89
2023/06/08 05:24:23;;;;;;;;;;;;;;;21.66;43.95;101013.73;105366;1297;71259;-88
2023/06/08 05:27:09;;;;;;;;;;;;;;;22.11;43.92;101017.85;105512;1297;59076;-88
2023/06/08 05:29:56;;;;;;;;;;;;;;;22.65;43.75;101016.77;105581;1297;59263;-87
2023/06/08 05:32:41;;;;;;;;;;;;;;;23.32;43.40;101014.71;105436;1297;74485;-88
2023/06/08 05:35:28;;;;;;;;;;;;;;;23.97;43.32;101011.64;105576;1297;67259;-89
2023/06/08 05:38:14;;;;;;;;;;;;;;;24.56;42.98;101013.79;105367;1297;71432;-89
2023/06/08 05:40:58;;;;;;;;;;;;;;;25.08;42.72;101012.13;105328;1296;59184;-89
2023/06/08 05:43:42;;;;;;;;;;;;;;;25.39;42.45;101020.02;105367;1297;59100;-88
2023/06/08 05:46:27;;;;;;;;;;;;;;;25.56;42.36;101019.80;105535;1297;73200;-91
2023/06/08 05:49:11;;;;;;;;;;;;;;;25.81;42.12;101018.17;105514;1297;67219;-89
2023/06/08 05:51:55;;;;;;;;;;;;;;;26.06;41.85;101019.48;105449;1296;71993;-89
2023/06/08 05:54:39;;;;;;;;;;;;;;;26.31;41.57;101021.47;105437;1297;59108;-88
2023/06/08 05:57:23;;;;;;;;;;;;;;;26.62;41.40;101024.10;105407;1297;58995;-89
2023/06/08 06:00:12;;;;;;;;;;;;;;;26.94;41.32;101023.89;105240;1297;73737;-89
2023/06/08 06:02:56;;;;;;;;;;;;;;;27.27;41.17;101024.11;105392;1296;67804;-87
2023/06/08 06:05:40;;;;;;;;;;;;;;;27.55;41.10;101027.54;105372;1296;71405;-87
2023/06/08 06:08:24;;;;;;;;;;;;;;;27.90;40.81;101024.30;105496;1296;59080;-87
2023/06/08 06:11:08;;;;;;;;;;;;;;;28.09;40.50;101027.53;105282;1297;59471;-86
2023/06/08 06:13:52;;;;;;;;;;;;;;;28.16;40.43;101030.14;105332;1300;73445;-86
2023/06/08 06:16:36;;;;;;;;;;;;;;;28.36;40.16;101028.12;105447;1297;68946;-87
2023/06/08 06:19:20;;;;;;;;;;;;;;;28.59;40.15;101031.23;105563;1296;71825;-86
2023/06/08 06:22:05;;;;;;;;;;;;;;;28.96;40.06;101031.48;105340;1297;59048;-86
2023/06/08 06:24:48;;;;;;;;;;;;;;;29.45;39.62;101021.82;105389;1297;60047;-87
2023/06/08 06:27:32;;;;;;;;;;;;;;;30.03;39.24;101027.18;105422;1296;73537;-87
2023/06/08 06:30:16;;;;;;;;;;;;;;;30.41;38.83;101021.56;105238;1297;66562;-87
2023/06/08 06:33:00;;;;;;;;;;;;;;;30.87;38.55;101017.56;105454;1298;71394;-87
2023/06/08 06:35:44;;;;;;;;;;;;;;;31.38;38.30;101017.92;105485;1298;58993;-87
2023/06/08 06:38:30;;;;;;;;;;;;;;;31.87;37.96;101019.22;105565;1296;59045;-87
2023/06/08 06:41:16;;;;;;;;;;;;;;;32.53;37.82;101014.52;105427;1297;73688;-87
2023/06/08 06:44:02;;;;;;;;;;;;;;;33.30;37.66;101021.63;105596;1297;68912;-87
2023/06/08 06:46:48;;;;;;;;;;;;;;;33.95;37.06;101025.86;105272;1297;288295;-86
2023/06/08 06:49:33;;;;;;;;;;;;;;;34.45;36.82;101026.60;105533;1297;59465;-88
2023/06/08 06:52:19;;;;;;;;;;;;;;;34.70;36.99;101025.80;105518;1297;59955;-87
2023/06/08 06:55:05;;;;;;;;;;;;;;;35.14;36.72;101024.98;105474;1297;73430;-87
2023/06/08 06:57:52;;;;;;;;;;;;;;;35.01;35.81;101029.84;105410;1297;67293;-87
2023/06/08 07:00:39;;;;;;;;;;;;;;;35.13;35.99;101027.76;105500;1296;73108;-87
2023/06/08 07:03:27;;;;;;;;;;;;;;;35.75;35.35;101025.27;105572;1296;58917;-87
2023/06/08 07:06:13;;;;;;;;;;;;;;;36.41;34.67;101021.80;105428;1296;59227;-87
2023/06/08 07:08:59;;;;;;;;;;;;;;;37.11;34.27;101024.44;105532;1297;75554;-87
2023/06/08 07:11:45;;;;;;;;;;;;;;;38.00;33.93;101025.20;105491;1297;67449;-87
2023/06/08 07:14:31;;;;;;;;;;;;;;;38.81;33.57;101027.74;105362;1297;71436;-87
2023/06/08 07:17:17;;;;;;;;;;;;;;;39.02;32.96;101030.93;105431;1297;59678;-87
2023/06/08 07:20:03;;;;;;;;;;;;;;;39.11;32.65;101032.99;105536;1297;58977;-87
2023/06/08 07:22:49;;;;;;;;;;;;;;;39.17;32.40;101032.77;105507;1297;74339;-87
2023/06/08 07:25:37;;;;;;;;;;;;;;;38.99;32.45;101035.42;105606;1297;69664;-87
2023/06/08 07:28:22;;;;;;;;;;;;;;;38.82;32.37;101039.11;105421;1298;71904;-87
2023/06/08 07:31:08;;;;;;;;;;;;;;;38.99;32.08;101032.88;105502;1296;58984;-87
2023/06/08 07:33:57;;;;;;;;;;;;;;;38.80;31.40;101036.64;105398;1297;60340;-87
2023/06/08 07:36:43;;;;;;;;;;;;;;;38.11;31.35;101034.70;105474;1297;73225;-87
2023/06/08 07:39:29;;;;;;;;;;;;;;;37.83;31.11;101034.35;105428;1297;68521;-87
2023/06/08 07:42:15;;;;;;;;;;;;;;;37.74;30.84;101034.38;105379;1297;71323;-87
2023/06/08 07:45:01;;;;;;;;;;;;;;;38.77;29.92;101038.57;105381;1296;58934;-87
2023/06/08 07:47:47;;;;;;;;;;;;;;;39.34;29.54;101033.75;105433;1297;59183;-87
2023/06/08 07:50:33;;;;;;;;;;;;;;;39.59;29.24;101028.05;105519;1297;75949;-87
2023/06/08 07:53:20;;;;;;;;;;;;;;;40.89;28.89;101030.26;105501;1297;67223;-87
2023/06/08 07:56:06;;;;;;;;;;;;;;;42.55;28.49;101033.20;105512;1297;71191;-87
2023/06/08 07:58:52;;;;;;;;;;;;;;;43.22;28.03;101030.90;105409;1297;59122;-88
2023/06/08 08:01:38;;;;;;;;;;;;;;;44.10;27.85;101032.69;105450;1296;60173;-88
2023/06/08 08:04:24;;;;;;;;;;;;;;;45.18;27.26;101031.94;105511;1297;75318;-88
2023/06/08 08:07:10;;;;;;;;;;;;;;;46.14;27.12;101026.19;105435;1299;68552;-88
2023/06/08 08:09:56;;;;;;;;;;;;;;;46.87;26.47;101026.73;105534;1296;63572;-88
2023/06/08 08:12:42;;;;;;;;;;;;;;;47.06;26.26;101023.33;105514;1297;59002;-87
2023/06/08 08:15:28;;;;;;;;;;;;;;;47.21;26.11;101017.91;105507;1298;58915;-87
2023/06/08 08:18:14;;;;;;;;;;;;;;;47.80;25.77;101015.95;105396;1297;64807;-89
2023/06/08 08:21:00;;;;;;;;;;;;;;;48.54;25.34;101015.42;105422;1297;59445;-87
2023/06/08 08:23:48;;;;;;;;;;;;;;;49.28;24.91;101015.49;105516;1297;64128;-87
2023/06/08 08:26:40;;;;;;;;;;;;;;;49.68;24.52;101014.79;105347;1297;59026;-87
2023/06/08 08:29:26;;;;;;;;;;;;;;;49.80;23.82;101013.20;105497;1297;59387;-87
2023/06/08 08:32:12;;;;;;;;;;;;;;;50.00;23.55;101015.71;105508;1297;64465;-87
2023/06/08 08:34:58;;;;;;;;;;;;;;;50.33;22.98;101016.78;105334;1297;68615;-88
2023/06/08 08:37:45;;;;;;;;;;;;;;;50.46;22.66;101016.94;105525;1297;62757;-87
2023/06/08 08:40:30;;;;;;;;;;;;;;;50.55;22.23;101018.17;105438;1298;58964;-88
2023/06/08 08:43:23;;;;;;;;;;;;;;;50.78;21.80;101016.84;105419;1297;58995;-88
2023/06/08 08:46:11;;;;;;;;;;;;;;;51.25;21.61;101014.95;105369;1297;64486;-88
2023/06/08 08:48:58;;;;;;;;;;;;;;;51.31;21.03;101012.31;105413;1297;59961;-88
2023/06/08 08:51:48;;;;;;;;;;;;;;;50.48;20.55;101010.48;105447;1297;62778;-87
2023/06/08 08:54:34;;;;;;;;;;;;;;;48.51;20.02;101005.02;105389;1298;58859;-87
2023/06/08 08:57:20;;;;;;;;;;;;;;;46.05;20.19;100996.48;105353;1297;59098;-88
2023/06/08 09:00:06;;;;;;;;;;;;;;;44.34;20.31;100991.08;105448;1297;74724;-87
2023/06/08 09:02:52;;;;;;;;;;;;;;;42.40;20.28;100985.55;105320;1297;69055;-87
2023/06/08 09:05:38;;;;;;;;;;;;;;;40.72;20.30;100982.00;105332;1297;71279;-87
2023/06/08 09:08:25;;;;;;;;;;;;;;;39.36;20.18;100977.70;105393;1298;59187;-87
2023/06/08 09:11:10;;;;;;;;;;;;;;;38.13;20.22;100976.29;105364;1296;59428;-87
2023/06/08 09:14:07;;;;;;;;;;;;;;;37.17;20.15;100974.55;105406;1297;74087;-87
2023/06/08 09:16:53;;;;;;;;;;;;;;;36.27;20.27;100967.75;105289;1296;67484;-86
2023/06/08 09:19:51;;;;;;;;;;;;;;;35.64;20.39;100959.77;105433;1297;73090;-86
2023/06/08 09:22:37;;;;;;;;;;;;;;;35.10;20.28;100962.90;105302;1297;59432;-86
2023/06/08 09:25:36;;;;;;;;;;;;;;;34.30;20.08;100965.79;105228;1298;59247;-86
2023/06/08 09:28:26;;;;;;;;;;;;;;;33.37;20.26;100966.19;105293;1297;74071;-86
2023/06/08 09:31:12;;;;;;;;;;;;;;;32.74;20.45;100959.82;105220;1297;67422;-86
2023/06/08 09:34:05;;;;;;;;;;;;;;;32.42;20.51;100961.50;105346;1298;71265;-86
2023/06/08 09:37:03;;;;;;;;;;;;;;;32.08;20.50;100960.70;105333;1297;59187;-86
2023/06/08 09:39:49;;;;;;;;;;;;;;;31.79;20.30;100958.67;105434;1297;59551;-86
2023/06/08 09:42:42;;;;;;;;;;;;;;;31.54;20.41;100953.28;105086;1297;311865;-86
2023/06/08 09:45:28;;;;;;;;;;;;;;;31.35;20.65;100955.20;105302;1301;67292;-86
2023/06/08 09:48:14;;;;;;;;;;;;;;;31.04;20.64;100959.30;105335;1297;71475;-86
2023/06/08 09:51:00;;;;;;;;;;;;;;;30.65;20.67;100953.69;105285;1296;58977;-86
2023/06/08 09:53:47;;;;;;;;;;;;;;;30.48;20.86;100949.55;105401;1297;59673;-85
2023/06/08 09:56:33;;;;;;;;;;;;;;;30.42;20.97;100943.93;105285;1300;73506;-86
2023/06/08 09:59:19;;;;;;;;;;;;;;;30.41;21.38;100944.15;105275;1297;68327;-86
2023/06/08 10:02:16;;;;;;;;;;;;;;;30.40;21.08;100943.23;105360;1298;72089;-86
2023/06/08 10:05:08;;;;;;;;;;;;;;;30.35;20.94;100938.02;105354;1297;59142;-86
2023/06/08 10:07:55;;;;;;;;;;;;;;;30.27;21.05;100942.84;105270;1297;59222;-86
2023/06/08 10:10:41;;;;;;;;;;;;;;;30.17;20.88;100941.31;105385;1297;75314;-85
2023/06/08 10:13:27;;;;;;;;;;;;;;;30.11;21.17;100938.68;105333;1297;68167;-86
2023/06/08 10:16:13;;;;;;;;;;;;;;;30.16;21.12;100930.68;105380;1297;71465;-88
2023/06/08 10:19:01;;;;;;;;;;;;;;;30.07;21.16;100935.09;105292;1300;59201;-84
2023/06/08 10:21:48;;;;;;;;;;;;;;;30.06;21.25;100933.07;105307;1296;59061;-84
2023/06/08 10:24:34;;;;;;;;;;;;;;;30.01;21.33;100927.91;105401;1297;72484;-84
2023/06/08 10:27:23;;;;;;;;;;;;;;;30.00;21.45;100922.23;105348;1297;68273;-85
2023/06/08 10:30:10;;;;;;;;;;;;;;;29.98;21.61;100917.78;105421;1297;72441;-85
2023/06/08 10:33:07;;;;;;;;;;;;;;;29.98;21.61;100920.11;105289;1297;59353;-87
2023/06/08 10:36:04;;;;;;;;;;;;;;;29.88;21.81;100914.58;105368;1297;59279;-85
2023/06/08 10:38:54;;;;;;;;;;;;;;;29.86;21.99;100916.27;105371;1299;73425;-85
2023/06/08 10:41:41;;;;;;;;;;;;;;;29.81;21.96;100911.39;105426;1297;68936;-84
2023/06/08 10:44:32;;;;;;;;;;;;;;;29.73;22.19;100908.25;105325;1297;71076;-84
2023/06/08 10:47:18;;;;;;;;;;;;;;;29.67;22.46;100912.13;105400;1297;59414;-84
2023/06/08 10:50:26;;;;;;;;;;;;;;;;;;;;;
2023/06/08 10:53:29;;;;;;;;;;;;;;;;;;;;;
2023/06/08 10:56:41;;;;;;;;;;;;;;;29.93;22.24;100910.73;105351;1300;68688;-86
2023/06/08 10:59:45;;;;;;;;;;;;;;;29.92;22.28;100912.64;105149;1301;72492;-86
2023/06/08 11:02:42;;;;;;;;;;;;;;;29.95;22.53;100909.55;105334;1297;59403;-86
2023/06/08 11:05:55;;;;;;;;;;;;;;;;;;;;;
2023/06/08 11:09:10;;;;;;;;;;;;;;;29.97;22.77;100905.63;104992;1302;75086;-86
2023/06/08 11:12:18;;;;;;;;;;;;;;;29.97;22.76;100909.30;105013;1301;67448;-86
2023/06/08 11:15:24;;;;;;;;;;;;;;;30.06;22.88;100898.26;104938;1303;71295;-86
2023/06/08 11:18:32;;;;;;;;;;;;;;;30.18;23.15;100904.34;105009;1301;59662;-86
2023/06/08 11:21:54;;;;;;;;;;;;;;;;;;;;;
2023/06/08 11:24:58;;;;;;;;;;;;;;;30.19;23.10;100893.39;105068;1301;73437;-86
2023/06/08 11:28:14;;;;;;;;;;;;;;;30.21;23.22;100890.53;104937;1303;68185;-86
2023/06/08 11:41:38;;;;;;;;;;;;;;;;;;;;;
2023/06/08 11:44:27;;;;;;;;;;;;;;;30.14;22.87;100880.41;103894;1314;68176;-86
2023/06/08 11:47:36;;;;;;;;;;;;;;;30.15;22.90;100878.35;104152;1314;72286;-86
2023/06/08 11:50:36;;;;;;;;;;;;;;;30.08;22.87;100877.98;104036;1312;58955;-86
2023/06/08 12:01:14;;;;;;;;;;;;;;;;;;;;;
2023/06/08 12:08:29;;;;;;;;;;;;;;;;;;;;;
2023/06/08 12:12:11;;;;;;;;;;;;;;;;;;;;;
2023/06/08 12:15:37;;;;;;;;;;;;;;;30.14;23.63;100861.21;102313;1335;73302;-85
2023/06/08 12:22:43;;;;;;;;;;;;;;;;;;;;;
2023/06/08 12:27:06;;;;;;;;;;;;;;;;;;;;;
2023/06/08 12:30:02;;;;;;;;;;;;;;;;;;;;;
2023/06/08 12:36:46;;;;;;;;;;;;;;;;;;;;;
2023/06/08 12:43:50;;;;;;;;;;;;;;;30.73;23.62;100824.92;102651;1330;58798;-85
2023/06/08 12:57:02;;;;;;;;;;;;;;;;;;;;;
2023/06/08 13:04:24;;;;;;;;;;;;;;;;;;;;;
2023/06/08 13:07:51;;;;;;;;;;;;;;;;;;;;;
2023/06/08 13:11:17;;;;;;;;;;;;;;;;;;;;;
2023/06/08 13:14:58;;;;;;;;;;;;;;;;;;;;;
2023/06/08 13:17:56;;;;;;;;;;;;;;;29.92;24.53;100829.79;103312;1320;59469;-85
2023/06/08 13:25:12;;;;;;;;;;;;;;;;;;;;;
2023/06/08 13:28:53;;;;;;;;;;;;;;;;;;;;;
2023/06/08 13:32:11;;;;;;;;;;;;;;;;;;;;;
2023/06/08 13:35:48;;;;;;;;;;;;;;;;;;;;;
2023/06/08 13:39:10;;;;;;;;;;;;;;;;;;;;;
2023/06/08 13:42:30;;;;;;;;;;;;;;;;;;;;;
2023/06/08 13:49:17;;;;;;;;;;;;;;;29.24;25.41;100814.98;103073;1324;70520;-85
2023/06/08 13:52:56;;;;;;;;;;;;;;;29.31;25.23;100819.27;103154;1323;59262;-85
2023/06/08 13:59:59;;;;;;;;;;;;;;;;;;;;;
2023/06/08 14:03:11;;;;;;;;;;;;;;;;;;;;;
2023/06/08 14:06:42;;;;;;;;;;;;;;;;;;;;;
2023/06/08 14:59:02;;;;;;;;;;;;;;;28.90;25.83;100760.08;104143;1314;72599;-85
2023/06/08 15:01:48;;;;;;;;;;;;;;;28.86;25.89;100755.86;104147;1312;59449;-86
2023/06/08 15:04:34;;;;;;;;;;;;;;;28.82;25.98;100761.14;104184;1311;59368;-86
2023/06/08 15:07:20;;;;;;;;;;;;;;;28.73;25.84;100757.48;104140;1314;73479;-86
2023/06/08 15:10:06;;;;;;;;;;;;;;;28.63;25.93;100753.48;104147;1314;67500;-86
2023/06/08 15:12:52;;;;;;;;;;;;;;;28.58;25.93;100752.48;104690;1308;71684;-86
2023/06/08 15:15:39;;;;;;;;;;;;;;;28.57;25.89;100752.98;104732;1305;59381;-86
2023/06/08 15:18:25;;;;;;;;;;;;;;;28.51;25.88;100747.26;104782;1306;60243;-86
2023/06/08 15:21:11;;;;;;;;;;;;;;;28.46;25.91;100745.81;104827;1306;74812;-86
2023/06/08 15:23:57;;;;;;;;;;;;;;;28.44;26.06;100743.65;104868;1304;68228;-86
2023/06/08 15:26:46;;;;;;;;;;;;;;;28.47;26.11;100739.98;104891;1305;70538;-85
2023/06/08 15:29:32;;;;;;;;;;;;;;;28.51;26.10;100737.15;104899;1301;58966;-86
2023/06/08 15:32:19;;;;;;;;;;;;;;;28.53;26.17;100736.98;105404;1299;59782;-85
2023/06/08 15:35:05;;;;;;;;;;;;;;;28.52;26.09;100735.86;105490;1297;73103;-85
2023/06/08 15:37:51;;;;;;;;;;;;;;;28.50;26.17;100734.60;105448;1298;68411;-86
2023/06/08 15:40:37;;;;;;;;;;;;;;;28.50;26.18;100733.03;105450;1297;72573;-86
2023/06/08 15:43:23;;;;;;;;;;;;;;;28.51;26.23;100735.75;105503;1298;59058;-86
2023/06/08 15:46:09;;;;;;;;;;;;;;;28.54;26.21;100733.38;105469;1300;59032;-86
2023/06/08 15:48:55;;;;;;;;;;;;;;;28.56;26.18;100734.27;105473;1297;73810;-86
2023/06/08 15:51:43;;;;;;;;;;;;;;;28.58;26.22;100733.86;105392;1302;66965;-86
2023/06/08 15:54:28;;;;;;;;;;;;;;;28.59;26.09;100733.23;105413;1298;73369;-86
2023/06/08 15:57:16;;;;;;;;;;;;;;;28.56;26.04;100728.77;105461;1297;59033;-86
2023/06/08 16:00:02;;;;;;;;;;;;;;;28.52;26.11;100726.59;105475;1297;59314;-85
2023/06/08 16:02:48;;;;;;;;;;;;;;;28.51;26.31;100720.88;105462;1300;73106;-85
2023/06/08 16:05:34;;;;;;;;;;;;;;;28.49;26.33;100721.77;105453;1297;67220;-86
2023/06/08 16:08:20;;;;;;;;;;;;;;;28.47;26.23;100717.14;101472;1297;5168244;-86
2023/06/08 16:11:06;;;;;;;;;;;;;;;28.48;26.29;100717.63;97903;1300;5003017;-85
2023/06/08 16:13:52;;;;;;;;;;;;;;;28.49;26.26;100719.27;105348;1297;59856;-85
2023/06/08 16:16:38;;;;;;;;;;;;;;;28.49;26.39;100719.41;105437;1297;73349;-86
2023/06/08 16:19:25;;;;;;;;;;;;;;;28.50;26.39;100716.81;105498;1297;67213;-85
2023/06/08 16:22:11;;;;;;;;;;;;;;;28.54;26.45;100719.90;105497;1297;71748;-86
2023/06/08 16:24:57;;;;;;;;;;;;;;;28.56;26.46;100719.73;105475;1296;59107;-86
2023/06/08 16:27:43;;;;;;;;;;;;;;;28.52;26.30;100714.89;105346;1300;60042;-86
2023/06/08 16:30:30;;;;;;;;;;;;;;;28.49;26.42;100713.56;105426;1297;75258;-85
2023/06/08 16:33:16;;;;;;;;;;;;;;;28.48;26.29;100714.02;105483;1297;67545;-85
2023/06/08 16:36:02;;;;;;;;;;;;;;;28.47;26.41;100711.62;105472;1300;71314;-86
2023/06/08 16:38:50;;;;;;;;;;;;;;;28.48;26.35;100708.55;105420;1297;59462;-85
2023/06/08 16:41:36;;;;;;;;;;;;;;;28.49;26.45;100709.34;105390;1297;59044;-85
2023/06/08 16:44:22;;;;;;;;;;;;;;;28.50;26.52;100705.33;105519;1297;73874;-85
2023/06/08 16:47:08;;;;;;;;;;;;;;;28.52;26.48;100704.98;105390;1296;68199;-86
2023/06/08 16:49:54;;;;;;;;;;;;;;;28.53;26.70;100704.85;105386;1297;72318;-86